Time;durP1;ratioP1;P1;durP2;ratioP2;P2;SDS_P1;SDS_P2;PMS_P1;PMS_P2;Temp;Humidity;BMP_temperature;BMP_pressure;BME280_temperature;BME280_humidity;BME280_pressure;Samples;Min_cycle;Max_cycle;Signal;HPM_P1;HPM_P2
2021/03/10 00:01:21;;;;;;;9.27;6.35;;;16.90;51.20;;;;;;5052165;28;20107;-71
2021/03/10 00:03:47;;;;;;;8.40;5.45;;;16.90;51.30;;;;;;5052120;28;20032;-72
2021/03/10 00:06:12;;;;;;;10.93;5.85;;;16.90;51.30;;;;;;5052035;28;20393;-72
2021/03/10 00:08:38;;;;;;;10.65;6.20;;;16.90;51.30;;;;;;5051982;28;20075;-72
2021/03/10 00:11:04;;;;;;;7.57;4.93;;;16.80;51.30;;;;;;5052084;28;20024;-73
2021/03/10 00:13:29;;;;;;;9.68;5.85;;;16.80;51.30;;;;;;5051827;28;20029;-73
2021/03/10 00:15:55;;;;;;;10.15;6.05;;;16.80;51.30;;;;;;5052400;28;20024;-71
2021/03/10 00:18:21;;;;;;;9.68;5.57;;;16.70;51.20;;;;;;5051421;28;20037;-72
2021/03/10 00:20:46;;;;;;;11.27;5.88;;;16.70;51.30;;;;;;5051422;28;20036;-73
2021/03/10 00:23:12;;;;;;;9.32;5.38;;;16.70;51.40;;;;;;5051786;28;20029;-72
2021/03/10 00:25:37;;;;;;;9.82;5.55;;;16.70;51.40;;;;;;5051520;28;20370;-72
2021/03/10 00:28:03;;;;;;;7.97;5.20;;;16.60;51.30;;;;;;5033547;28;20025;-73
2021/03/10 00:30:29;;;;;;;8.23;5.82;;;16.60;51.40;;;;;;5051684;28;20044;-73
2021/03/10 00:32:54;;;;;;;7.70;5.57;;;16.60;51.40;;;;;;5052026;28;20108;-72
2021/03/10 00:35:20;;;;;;;9.13;5.65;;;16.50;51.40;;;;;;5051586;28;20025;-72
2021/03/10 00:37:46;;;;;;;9.25;5.20;;;16.50;51.40;;;;;;5051569;28;20100;-73
2021/03/10 00:40:11;;;;;;;8.15;4.70;;;16.50;51.50;;;;;;5051570;28;20508;-74
2021/03/10 00:42:37;;;;;;;8.13;5.03;;;16.50;51.50;;;;;;5033308;28;20081;-72
2021/03/10 00:45:03;;;;;;;7.57;4.78;;;16.40;51.40;;;;;;5051527;28;20075;-73
2021/03/10 00:47:28;;;;;;;7.75;5.00;;;16.40;51.50;;;;;;5051782;28;20029;-73
2021/03/10 00:49:54;;;;;;;8.10;5.53;;;16.40;51.50;;;;;;5050889;28;20096;-73
2021/03/10 00:52:20;;;;;;;9.02;5.60;;;16.40;51.50;;;;;;5051585;28;20028;-73
2021/03/10 00:54:45;;;;;;;9.35;5.38;;;16.30;51.40;;;;;;5051350;28;20036;-73
2021/03/10 00:57:11;;;;;;;7.47;5.25;;;16.30;51.40;;;;;;5051241;28;20118;-73
2021/03/10 00:59:36;;;;;;;10.23;5.95;;;16.30;51.40;;;;;;5051523;28;20104;-72
2021/03/10 01:02:03;;;;;;;7.75;5.32;;;16.30;51.50;;;;;;5051308;28;20041;-73
2021/03/10 01:04:28;;;;;;;10.88;6.25;;;16.20;51.50;;;;;;5051711;28;20484;-73
2021/03/10 01:06:54;;;;;;;8.18;5.63;;;16.30;51.50;;;;;;5051490;28;20025;-71
2021/03/10 01:09:20;;;;;;;7.40;5.03;;;16.20;51.50;;;;;;5051158;28;20473;-71
2021/03/10 01:11:45;;;;;;;9.13;5.72;;;16.10;51.50;;;;;;5051253;28;20037;-71
2021/03/10 01:14:12;;;;;;;9.95;5.50;;;16.10;51.50;;;;;;5051443;28;20107;-71
2021/03/10 01:16:38;;;;;;;8.88;5.47;;;16.00;52.10;;;;;;5033247;28;20032;-71
2021/03/10 01:19:04;;;;;;;9.02;5.47;;;16.10;51.70;;;;;;5051274;28;20092;-72
2021/03/10 01:21:30;;;;;;;8.23;5.43;;;16.10;51.60;;;;;;5050618;28;20127;-72
2021/03/10 01:23:56;;;;;;;7.68;5.13;;;16.00;51.60;;;;;;5050829;28;20104;-72
2021/03/10 01:26:21;;;;;;;7.90;5.15;;;16.00;51.60;;;;;;5050921;28;20425;-72
2021/03/10 01:28:48;;;;;;;8.70;5.32;;;16.00;51.60;;;;;;5051207;28;20017;-72
2021/03/10 01:31:13;;;;;;;9.35;5.25;;;16.00;51.60;;;;;;5051142;28;20033;-72
2021/03/10 01:33:39;;;;;;;8.27;5.60;;;16.00;51.60;;;;;;5050996;28;20094;-72
2021/03/10 01:36:05;;;;;;;8.23;4.80;;;15.90;51.60;;;;;;5051270;28;20477;-72
2021/03/10 01:38:30;;;;;;;7.28;4.50;;;15.90;51.60;;;;;;5051247;28;20036;-71
2021/03/10 01:40:56;;;;;;;7.93;4.88;;;15.90;51.60;;;;;;5033226;28;20036;-72
2021/03/10 01:43:21;;;;;;;10.48;4.93;;;15.90;51.60;;;;;;5051097;28;20072;-72
2021/03/10 01:45:47;;;;;;;8.85;5.00;;;15.90;51.70;;;;;;5050952;28;20025;-72
2021/03/10 01:48:16;;;;;;;8.05;4.55;;;15.80;51.70;;;;;;5050491;28;20029;-71
2021/03/10 01:50:42;;;;;;;7.60;4.78;;;15.80;51.60;;;;;;5051165;28;20108;-73
2021/03/10 01:53:07;;;;;;;7.75;4.78;;;15.80;51.70;;;;;;5050719;28;20125;-72
2021/03/10 01:55:33;;;;;;;9.18;5.47;;;15.80;51.70;;;;;;5050943;28;20025;-72
2021/03/10 01:58:00;;;;;;;8.25;4.70;;;15.80;51.80;;;;;;5051193;28;20024;-72
2021/03/10 02:00:28;;;;;;;8.60;4.80;;;15.80;51.80;;;;;;5052012;28;20029;-73
2021/03/10 02:02:54;;;;;;;8.57;4.63;;;15.70;51.70;;;;;;5054411;28;20104;-72
2021/03/10 02:05:23;;;;;;;6.25;4.57;;;15.70;51.70;;;;;;5036558;28;20068;-72
2021/03/10 02:08:09;;;;;;;6.82;4.40;;;15.70;51.70;;;;;;5054131;28;20025;-73
2021/03/10 02:11:11;;;;;;;6.88;4.07;;;15.70;51.90;;;;;;5054457;28;20021;-71
2021/03/10 02:14:03;;;;;;;7.55;4.60;;;15.60;51.90;;;;;;5054497;28;20025;-73
2021/03/10 02:16:54;;;;;;;9.80;4.55;;;15.60;52.00;;;;;;5053786;28;20029;-72
2021/03/10 02:19:51;;;;;;;6.85;4.20;;;15.60;52.00;;;;;;5054210;28;20036;-71
2021/03/10 02:22:39;;;;;;;7.05;4.47;;;15.60;52.10;;;;;;5025798;28;20516;-72
2021/03/10 02:25:23;;;;;;;7.80;4.72;;;15.50;52.10;;;;;;5054310;28;20060;-73
2021/03/10 02:27:54;;;;;;;8.65;4.30;;;15.50;52.00;;;;;;5053635;28;20083;-72
2021/03/10 02:30:23;;;;;;;9.05;4.70;;;15.50;52.10;;;;;;5053928;28;20025;-73
2021/03/10 02:33:01;;;;;;;7.43;3.88;;;15.50;52.10;;;;;;5053995;28;20025;-73
2021/03/10 02:35:28;;;;;;;8.77;4.22;;;15.50;52.10;;;;;;5053985;28;20032;-72
2021/03/10 02:37:57;;;;;;;6.35;3.95;;;15.50;52.20;;;;;;5053786;28;20028;-73
2021/03/10 02:40:25;;;;;;;5.20;3.47;;;15.40;52.20;;;;;;5053666;28;20484;-72
2021/03/10 02:42:52;;;;;;;7.72;4.15;;;15.40;52.30;;;;;;5053649;28;20033;-72
2021/03/10 02:45:21;;;;;;;6.70;3.97;;;15.40;52.30;;;;;;5054078;28;20362;-72
2021/03/10 02:47:48;;;;;;;6.07;3.85;;;15.40;52.30;;;;;;5053250;28;20401;-73
2021/03/10 02:50:14;;;;;;;9.05;4.60;;;15.40;52.90;;;;;;5053593;28;20516;-73
2021/03/10 02:52:41;;;;;;;7.18;4.25;;;15.30;52.20;;;;;;5053575;28;20476;-73
2021/03/10 02:55:07;;;;;;;6.07;3.40;;;15.30;52.30;;;;;;5053312;28;20029;-73
2021/03/10 02:57:34;;;;;;;7.00;4.72;;;15.30;52.30;;;;;;5053620;28;20071;-72
2021/03/10 03:00:05;;;;;;;5.85;3.47;;;15.30;52.30;;;;;;5052906;28;20508;-72
2021/03/10 03:02:31;;;;;;;6.20;3.80;;;15.30;52.30;;;;;;5053080;28;20511;-73
2021/03/10 03:04:56;;;;;;;6.22;3.85;;;15.20;52.40;;;;;;5053287;28;20061;-73
2021/03/10 03:07:22;;;;;;;7.30;3.85;;;15.20;52.40;;;;;;5053242;28;20083;-71
2021/03/10 03:09:48;;;;;;;5.85;3.92;;;15.20;52.40;;;;;;5052818;28;20480;-72
2021/03/10 03:12:14;;;;;;;7.88;4.30;;;15.20;52.40;;;;;;5035027;28;20020;-73
2021/03/10 03:14:42;;;;;;;6.88;4.00;;;15.20;52.40;;;;;;5053253;28;20025;-71
2021/03/10 03:17:10;;;;;;;5.70;3.55;;;15.20;52.40;;;;;;5053415;28;20032;-73
2021/03/10 03:19:36;;;;;;;6.72;4.20;;;15.20;52.50;;;;;;5053087;28;20037;-72
2021/03/10 03:22:03;;;;;;;6.72;4.20;;;15.20;52.60;;;;;;5053038;28;20044;-72
2021/03/10 03:24:30;;;;;;;8.57;4.15;;;15.10;52.50;;;;;;5052841;28;20104;-73
2021/03/10 03:26:57;;;;;;;6.15;3.80;;;15.10;52.60;;;;;;5052976;28;20378;-72
2021/03/10 03:29:26;;;;;;;6.88;4.28;;;15.10;52.50;;;;;;5052508;28;20052;-71
2021/03/10 03:31:54;;;;;;;6.57;3.97;;;15.10;52.60;;;;;;5052265;28;21393;-71
2021/03/10 03:34:20;;;;;;;8.27;3.45;;;15.10;52.60;;;;;;5052899;28;20032;-71
2021/03/10 03:36:46;;;;;;;5.53;3.65;;;15.10;52.60;;;;;;5052659;28;20067;-71
2021/03/10 03:39:12;;;;;;;4.93;3.38;;;15.10;52.60;;;;;;5052378;28;20049;-71
2021/03/10 03:41:39;;;;;;;6.53;3.60;;;15.10;52.60;;;;;;5034826;28;20405;-71
2021/03/10 03:44:05;;;;;;;5.65;4.13;;;15.10;52.60;;;;;;5052811;28;20029;-71
2021/03/10 03:46:31;;;;;;;5.47;3.55;;;15.10;52.50;;;;;;5052678;28;20025;-70
2021/03/10 03:49:00;;;;;;;6.15;3.75;;;15.10;52.60;;;;;;5052007;28;20394;-72
2021/03/10 03:51:33;;;;;;;6.72;4.07;;;15.10;52.60;;;;;;5052348;28;20087;-71
2021/03/10 03:54:01;;;;;;;7.05;3.60;;;15.10;52.60;;;;;;5052540;28;20547;-72
2021/03/10 03:56:27;;;;;;;4.45;3.42;;;15.10;52.60;;;;;;5034425;28;20425;-72
2021/03/10 03:58:53;;;;;;;8.38;3.80;;;15.00;52.60;;;;;;5052058;28;20021;-71
2021/03/10 04:01:19;;;;;;;5.80;3.30;;;15.00;52.60;;;;;;5052248;28;20033;-71
2021/03/10 04:03:46;;;;;;;5.93;3.65;;;15.00;52.60;;;;;;5052323;28;20017;-71
2021/03/10 04:06:13;;;;;;;8.80;4.03;;;15.00;52.60;;;;;;5052240;28;20032;-72
2021/03/10 04:08:40;;;;;;;7.78;3.63;;;15.00;52.50;;;;;;5052443;28;20603;-71
2021/03/10 04:11:07;;;;;;;7.28;3.88;;;15.00;52.60;;;;;;5051587;28;20112;-71
2021/03/10 04:13:32;;;;;;;8.10;3.83;;;15.00;52.60;;;;;;5052070;28;20032;-72
2021/03/10 04:15:58;;;;;;;5.53;3.90;;;15.00;52.60;;;;;;5051970;28;20025;-71
2021/03/10 04:18:24;;;;;;;7.43;3.88;;;15.00;52.70;;;;;;5052118;28;20036;-72
2021/03/10 04:20:49;;;;;;;6.72;3.92;;;15.00;52.60;;;;;;5051606;28;20032;-71
2021/03/10 04:23:16;;;;;;;7.07;3.85;;;15.00;52.60;;;;;;5051491;28;20033;-72
2021/03/10 04:25:42;;;;;;;5.38;3.50;;;15.00;52.70;;;;;;5051785;28;20048;-72
2021/03/10 04:28:08;;;;;;;5.50;3.00;;;15.00;52.70;;;;;;5052285;28;20048;-71
2021/03/10 04:30:34;;;;;;;4.78;3.38;;;14.90;52.60;;;;;;5051176;28;20761;-72
2021/03/10 04:32:59;;;;;;;7.00;3.53;;;14.90;52.60;;;;;;5033457;28;20544;-72
2021/03/10 04:35:25;;;;;;;6.25;3.83;;;14.90;52.60;;;;;;5051807;28;20024;-72
2021/03/10 04:37:51;;;;;;;6.20;3.42;;;14.90;52.60;;;;;;5051540;28;20488;-72
2021/03/10 04:40:17;;;;;;;6.35;3.83;;;14.90;52.70;;;;;;5051059;28;20021;-72
2021/03/10 04:42:43;;;;;;;6.43;3.75;;;14.90;52.60;;;;;;5051730;28;20461;-72
2021/03/10 04:45:12;;;;;;;5.05;3.58;;;14.90;52.70;;;;;;5052128;28;20099;-72
2021/03/10 04:47:37;;;;;;;6.35;3.83;;;14.90;52.60;;;;;;5052001;28;20086;-71
2021/03/10 04:50:05;;;;;;;5.70;3.40;;;14.90;52.60;;;;;;5050921;28;20033;-72
2021/03/10 04:52:31;;;;;;;6.22;3.50;;;14.90;52.70;;;;;;5051436;28;20056;-72
2021/03/10 04:54:56;;;;;;;5.70;3.30;;;14.80;52.70;;;;;;5051546;28;20475;-71
2021/03/10 04:57:22;;;;;;;4.97;3.50;;;14.80;52.70;;;;;;5050113;28;20084;-71
2021/03/10 04:59:48;;;;;;;4.45;3.30;;;14.80;52.70;;;;;;5051233;28;20074;-72
2021/03/10 05:02:13;;;;;;;6.10;3.42;;;14.80;52.70;;;;;;5033761;28;20493;-73
2021/03/10 05:04:39;;;;;;;6.65;3.97;;;14.80;52.80;;;;;;5051468;28;20473;-72
2021/03/10 05:07:05;;;;;;;6.47;4.18;;;14.80;52.80;;;;;;5051119;28;20029;-71
2021/03/10 05:09:31;;;;;;;4.82;3.42;;;14.80;52.80;;;;;;5051030;28;20025;-72
2021/03/10 05:11:57;;;;;;;7.05;3.13;;;14.80;52.80;;;;;;5051315;28;20074;-73
2021/03/10 05:14:23;;;;;;;4.88;3.47;;;14.80;52.80;;;;;;5051250;28;20017;-72
2021/03/10 05:16:49;;;;;;;5.97;3.08;;;14.80;52.70;;;;;;5051251;28;20133;-73
2021/03/10 05:19:15;;;;;;;6.03;3.33;;;14.80;52.70;;;;;;5051112;28;20492;-73
2021/03/10 05:21:40;;;;;;;5.72;3.70;;;14.80;52.70;;;;;;5050002;28;20496;-71
2021/03/10 05:24:06;;;;;;;6.70;3.78;;;14.80;52.70;;;;;;5051281;28;20039;-72
2021/03/10 05:26:32;;;;;;;5.65;3.75;;;14.80;52.70;;;;;;5051321;28;20033;-72
2021/03/10 05:28:58;;;;;;;5.60;3.17;;;14.80;52.70;;;;;;5050998;28;20537;-72
2021/03/10 05:31:23;;;;;;;6.57;3.45;;;14.70;52.70;;;;;;5050852;28;20467;-72
2021/03/10 05:33:49;;;;;;;4.43;3.22;;;14.70;53.30;;;;;;5050671;28;20021;-73
2021/03/10 05:36:14;;;;;;;5.55;3.60;;;14.70;52.70;;;;;;5053534;28;20029;-72
2021/03/10 05:38:40;;;;;;;6.45;3.78;;;14.70;52.70;;;;;;5055098;28;20064;-72
2021/03/10 05:41:06;;;;;;;6.30;3.90;;;14.70;52.70;;;;;;5054458;28;20544;-72
2021/03/10 05:43:32;;;;;;;5.45;3.22;;;14.70;52.70;;;;;;5054880;28;20024;-72
2021/03/10 05:45:58;;;;;;;5.53;3.70;;;14.70;52.80;;;;;;5054757;28;20033;-71
2021/03/10 05:48:24;;;;;;;6.75;4.00;;;14.70;52.80;;;;;;5054804;28;20556;-71
2021/03/10 05:50:49;;;;;;;7.13;3.47;;;14.70;52.80;;;;;;5054233;28;20037;-71
2021/03/10 05:53:19;;;;;;;4.38;3.15;;;14.70;52.80;;;;;;5054698;28;20036;-70
2021/03/10 05:55:46;;;;;;;5.03;3.60;;;14.70;52.80;;;;;;5055018;28;20154;-70
2021/03/10 05:58:12;;;;;;;4.82;3.60;;;14.70;52.90;;;;;;5054266;28;20080;-71
2021/03/10 06:00:46;;;;;;;5.82;3.63;;;14.60;52.80;;;;;;5054154;28;20035;-71
2021/03/10 06:03:13;;;;;;;5.18;3.28;;;14.60;52.80;;;;;;5054896;28;20087;-71
2021/03/10 06:05:39;;;;;;;7.00;4.13;;;14.60;52.80;;;;;;5054533;28;20032;-71
2021/03/10 06:08:06;;;;;;;5.82;3.60;;;14.60;52.80;;;;;;5054229;28;20029;-70
2021/03/10 06:10:47;;;;;;;7.25;3.53;;;14.60;52.80;;;;;;5054336;28;20032;-71
2021/03/10 06:13:20;;;;;;;5.68;3.58;;;14.60;52.80;;;;;;5054501;28;20036;-71
2021/03/10 06:15:46;;;;;;;6.47;4.13;;;14.60;52.90;;;;;;5054665;28;20148;-71
2021/03/10 06:18:34;;;;;;;6.45;3.50;;;14.60;52.90;;;;;;5053778;28;20032;-72
2021/03/10 06:21:11;;;;;;;6.50;3.88;;;14.60;53.40;;;;;;5054349;28;20037;-71
2021/03/10 06:23:48;;;;;;;6.43;3.35;;;14.60;52.90;;;;;;5054043;28;20024;-71
2021/03/10 06:26:27;;;;;;;6.65;3.88;;;14.60;52.90;;;;;;5054211;28;20506;-70
2021/03/10 06:28:54;;;;;;;5.72;3.38;;;14.60;53.00;;;;;;5053250;28;20028;-71
2021/03/10 06:31:27;;;;;;;5.65;3.70;;;14.60;52.90;;;;;;5038871;28;20060;-72
2021/03/10 06:34:19;;;;;;;6.30;3.80;;;14.50;52.90;;;;;;5039656;28;20508;-71
2021/03/10 06:36:50;;;;;;;5.55;3.78;;;14.50;52.90;;;;;;5050262;28;20041;-73
2021/03/10 06:39:30;;;;;;;6.75;3.65;;;14.50;53.00;;;;;;5053978;28;20549;-72
2021/03/10 06:41:57;;;;;;;6.32;3.78;;;14.60;53.00;;;;;;5052719;28;20036;-71
2021/03/10 06:44:27;;;;;;;4.80;3.72;;;14.50;52.90;;;;;;5053486;28;20109;-71
2021/03/10 06:46:59;;;;;;;5.38;3.20;;;14.60;52.80;;;;;;5052233;28;20401;-71
2021/03/10 06:49:27;;;;;;;5.40;3.13;;;14.70;52.60;;;;;;5052363;28;20036;-71
2021/03/10 06:52:07;;;;;;;5.40;3.20;;;14.90;52.40;;;;;;5051764;28;20511;-73
2021/03/10 06:54:33;;;;;;;3.80;2.47;;;15.10;52.00;;;;;;5053207;28;20083;-74
2021/03/10 06:57:02;;;;;;;5.20;3.03;;;15.40;51.80;;;;;;5052874;28;20056;-72
2021/03/10 06:59:41;;;;;;;4.38;2.78;;;15.70;51.60;;;;;;5052985;28;20025;-72
2021/03/10 07:02:17;;;;;;;5.10;2.67;;;15.80;51.50;;;;;;5052521;28;20033;-72
2021/03/10 07:04:44;;;;;;;7.43;2.90;;;16.00;51.60;;;;;;5051768;28;20025;-73
2021/03/10 07:07:10;;;;;;;9.95;3.17;;;16.10;52.00;;;;;;5053032;28;20040;-71
2021/03/10 07:09:37;;;;;;;9.00;3.03;;;16.40;52.10;;;;;;5052909;28;20032;-74
2021/03/10 07:12:06;;;;;;;6.03;3.47;;;16.50;52.10;;;;;;5052353;28;20024;-75
2021/03/10 07:14:33;;;;;;;6.80;2.58;;;16.70;52.40;;;;;;5044972;28;20025;-75
2021/03/10 07:17:00;;;;;;;8.05;2.63;;;16.80;52.20;;;;;;5053298;28;20029;-75
2021/03/10 07:19:25;;;;;;;8.23;2.72;;;16.90;52.20;;;;;;5052466;28;20029;-76
2021/03/10 07:21:56;;;;;;;6.22;2.42;;;17.00;52.20;;;;;;5052542;28;20416;-74
2021/03/10 07:24:50;;;;;;;4.22;2.17;;;17.00;52.20;;;;;;5052952;28;20047;-75
2021/03/10 07:27:18;;;;;;;8.43;2.97;;;17.20;52.20;;;;;;5052170;28;20043;-73
2021/03/10 07:29:44;;;;;;;5.85;2.35;;;17.30;52.50;;;;;;5051339;28;20108;-72
2021/03/10 07:32:10;;;;;;;8.13;3.08;;;17.20;52.30;;;;;;5052229;28;20036;-73
2021/03/10 07:34:37;;;;;;;5.80;2.50;;;17.20;52.00;;;;;;5035022;28;20025;-72
2021/03/10 07:37:12;;;;;;;4.93;2.67;;;17.20;52.00;;;;;;5051457;28;20535;-76
2021/03/10 07:39:38;;;;;;;6.18;3.10;;;17.20;52.10;;;;;;5052071;28;20032;-81
2021/03/10 07:42:22;;;;;;;5.38;2.67;;;17.30;52.00;;;;;;5033911;28;20512;-78
2021/03/10 07:44:57;;;;;;;7.47;2.95;;;17.30;51.70;;;;;;5052646;28;20021;-77
2021/03/10 07:47:23;;;;;;;9.27;2.40;;;17.40;51.80;;;;;;5050031;28;20083;-79
2021/03/10 07:50:01;;;;;;;11.40;2.92;;;17.50;51.80;;;;;;5051924;28;20037;-80
2021/03/10 07:52:28;;;;;;;6.70;2.47;;;17.50;51.40;;;;;;5050909;28;20017;-81
2021/03/10 07:55:03;;;;;;;4.82;2.28;;;17.50;51.30;;;;;;5051741;28;20053;-81
2021/03/10 07:57:33;;;;;;;5.65;2.50;;;17.50;51.20;;;;;;5043381;28;20025;-81
2021/03/10 08:00:07;;;;;;;6.28;2.58;;;17.60;51.10;;;;;;5050472;28;20116;-80
2021/03/10 08:02:44;;;;;;;6.00;2.92;;;17.60;51.00;;;;;;5032938;28;20045;-80
2021/03/10 08:05:23;;;;;;;5.65;2.78;;;17.70;50.70;;;;;;5051335;28;20029;-80
2021/03/10 08:08:04;;;;;;;5.28;2.40;;;17.70;50.60;;;;;;5051845;28;20029;-79
2021/03/10 08:10:29;;;;;;;7.85;2.50;;;17.80;50.60;;;;;;5050581;28;20029;-79
2021/03/10 08:12:55;;;;;;;3.83;2.35;;;17.80;50.60;;;;;;5050740;28;20026;-79
2021/03/10 08:15:22;;;;;;;6.60;2.33;;;17.80;50.50;;;;;;5051728;28;20029;-79
2021/03/10 08:17:48;;;;;;;8.75;2.35;;;17.80;50.40;;;;;;5051522;28;20025;-79
2021/03/10 08:20:14;;;;;;;4.47;2.22;;;17.80;50.40;;;;;;5051344;28;20119;-77
2021/03/10 08:22:40;;;;;;;3.67;1.98;;;17.90;50.10;;;;;;5051934;28;20029;-78
2021/03/10 08:25:06;;;;;;;7.43;2.08;;;17.90;49.90;;;;;;5051858;28;20029;-78
2021/03/10 08:27:32;;;;;;;5.55;3.20;;;18.00;49.70;;;;;;5052458;28;20086;-78
2021/03/10 08:29:58;;;;;;;3.75;2.28;;;18.00;49.60;;;;;;5050495;28;20054;-78
2021/03/10 08:32:33;;;;;;;9.60;2.75;;;18.00;49.50;;;;;;5052218;28;20044;-77
2021/03/10 08:35:34;;;;;;;5.72;3.53;;;18.10;49.20;;;;;;5051800;28;20033;-77
2021/03/10 08:38:03;;;;;;;7.68;3.17;;;18.10;49.20;;;;;;4990360;28;20512;-78
2021/03/10 08:40:30;;;;;;;6.47;3.75;;;18.10;49.10;;;;;;5039338;28;20396;-78
2021/03/10 08:42:57;;;;;;;5.38;3.13;;;18.00;49.00;;;;;;5051737;28;20037;-78
2021/03/10 08:45:27;;;;;;;7.80;2.88;;;18.00;48.90;;;;;;5052022;28;20020;-78
2021/03/10 08:48:03;;;;;;;4.93;2.85;;;18.00;49.00;;;;;;5051568;28;20025;-78
2021/03/10 08:50:38;;;;;;;6.72;2.85;;;18.00;48.90;;;;;;5051398;28;20106;-77
2021/03/10 08:53:04;;;;;;;6.33;2.80;;;17.90;48.90;;;;;;5034608;28;20033;-76
2021/03/10 08:55:30;;;;;;;5.80;3.17;;;17.90;48.80;;;;;;5051443;28;20028;-79
2021/03/10 08:57:59;;;;;;;7.03;2.80;;;17.80;48.80;;;;;;5051627;28;20013;-79
2021/03/10 09:00:27;;;;;;;9.05;2.92;;;17.80;49.00;;;;;;5051218;28;20110;-80
2021/03/10 09:02:53;;;;;;;6.90;3.13;;;17.80;49.00;;;;;;5051463;28;20074;-79
2021/03/10 09:05:28;;;;;;;7.13;3.58;;;17.70;48.80;;;;;;5033716;28;20420;-76
2021/03/10 09:07:54;;;;;;;4.72;2.70;;;17.70;48.90;;;;;;5051497;28;20096;-76
2021/03/10 09:10:21;;;;;;;6.70;3.00;;;17.70;48.80;;;;;;5035760;28;20029;-77
2021/03/10 09:12:49;;;;;;;8.65;3.00;;;17.60;48.70;;;;;;5037462;28;20326;-78
2021/03/10 09:15:18;;;;;;;4.50;3.00;;;17.60;48.80;;;;;;5055187;28;20029;-78
2021/03/10 09:17:43;;;;;;;4.85;2.97;;;17.60;48.80;;;;;;5055546;28;20099;-77
2021/03/10 09:20:24;;;;;;;7.07;2.92;;;17.50;48.80;;;;;;5037197;28;20561;-76
2021/03/10 09:22:49;;;;;;;4.25;2.13;;;17.50;48.80;;;;;;5054927;28;20043;-78
2021/03/10 09:25:18;;;;;;;4.93;2.60;;;17.40;48.80;;;;;;5055238;28;20025;-76
2021/03/10 09:27:44;;;;;;;4.65;3.08;;;17.40;48.80;;;;;;5054946;28;20570;-79
2021/03/10 09:30:13;;;;;;;5.45;2.50;;;17.40;49.00;;;;;;5054031;28;20067;-77
2021/03/10 09:32:39;;;;;;;7.53;2.40;;;17.30;49.00;;;;;;5054955;28;20063;-78
2021/03/10 09:35:23;;;;;;;7.00;3.25;;;17.30;49.00;;;;;;5054996;28;20453;-77
2021/03/10 09:37:58;;;;;;;6.25;3.25;;;17.20;49.00;;;;;;5055120;28;20512;-77
2021/03/10 09:40:44;;;;;;;4.03;2.60;;;17.20;49.10;;;;;;5054600;28;20029;-74
2021/03/10 09:43:17;;;;;;;6.13;3.15;;;17.10;49.00;;;;;;5054445;28;20207;-76
2021/03/10 09:45:44;;;;;;;7.35;3.30;;;17.10;49.00;;;;;;5054923;28;20116;-77
2021/03/10 09:48:15;;;;;;;6.10;2.95;;;17.10;49.00;;;;;;5054701;28;20032;-78
2021/03/10 09:50:49;;;;;;;6.43;2.75;;;17.00;49.00;;;;;;5054427;28;20027;-79
2021/03/10 09:53:23;;;;;;;5.68;2.70;;;17.00;49.00;;;;;;5054792;28;20025;-78
2021/03/10 09:55:49;;;;;;;8.00;3.35;;;17.00;49.00;;;;;;5054848;28;20381;-79
2021/03/10 09:58:15;;;;;;;4.00;2.85;;;17.00;49.00;;;;;;5054549;28;20020;-79
2021/03/10 10:00:43;;;;;;;5.35;3.00;;;17.00;49.00;;;;;;5054194;28;20487;-79
2021/03/10 10:03:10;;;;;;;6.53;3.42;;;16.90;48.90;;;;;;5054490;28;20029;-78
2021/03/10 10:05:39;;;;;;;5.63;3.30;;;16.90;49.00;;;;;;5054580;28;20021;-78
2021/03/10 10:08:06;;;;;;;4.72;3.25;;;16.90;48.90;;;;;;5054578;28;20060;-79
2021/03/10 10:10:34;;;;;;;5.47;3.58;;;16.80;49.00;;;;;;5053782;28;20035;-78
2021/03/10 10:13:01;;;;;;;5.50;3.20;;;16.80;49.10;;;;;;5054728;28;20060;-78
2021/03/10 10:15:33;;;;;;;4.20;3.45;;;16.80;49.10;;;;;;5054788;28;20036;-77
2021/03/10 10:18:01;;;;;;;7.65;4.90;;;16.80;49.00;;;;;;5054657;28;20021;-77
2021/03/10 10:20:29;;;;;;;8.30;4.05;;;16.80;48.90;;;;;;5053413;28;20095;-78
2021/03/10 10:22:54;;;;;;;8.82;4.82;;;16.80;48.90;;;;;;5053652;28;20025;-76
2021/03/10 10:25:23;;;;;;;6.78;4.18;;;16.90;48.90;;;;;;5053860;28;20021;-78
2021/03/10 10:27:50;;;;;;;7.03;4.35;;;16.80;48.90;;;;;;5054084;28;20021;-78
2021/03/10 10:30:18;;;;;;;6.90;3.97;;;16.80;48.90;;;;;;5053636;28;20481;-78
2021/03/10 10:32:53;;;;;;;7.55;4.75;;;16.80;48.90;;;;;;5052918;28;20051;-76
2021/03/10 10:35:19;;;;;;;6.68;4.72;;;16.80;48.90;;;;;;5054049;28;20074;-78
2021/03/10 10:37:45;;;;;;;6.03;4.57;;;16.90;48.90;;;;;;5035921;28;20404;-79
2021/03/10 10:40:13;;;;;;;8.18;5.20;;;16.90;48.80;;;;;;5053475;28;20024;-79
2021/03/10 10:42:39;;;;;;;9.43;5.55;;;16.80;48.80;;;;;;5053370;28;20397;-79
2021/03/10 10:45:07;;;;;;;8.10;6.20;;;16.80;48.80;;;;;;5053279;28;20029;-78
2021/03/10 10:47:33;;;;;;;8.95;5.68;;;16.90;48.90;;;;;;5053814;28;20029;-79
2021/03/10 10:50:06;;;;;;;9.73;5.57;;;16.80;48.80;;;;;;5053392;28;20029;-79
2021/03/10 10:52:35;;;;;;;9.93;5.80;;;16.80;48.90;;;;;;5053912;28;20500;-79
2021/03/10 10:55:03;;;;;;;9.88;5.78;;;16.70;48.80;;;;;;5053632;28;20036;-79
2021/03/10 10:57:28;;;;;;;10.75;6.00;;;16.70;48.90;;;;;;5053947;28;20017;-79
2021/03/10 10:59:54;;;;;;;9.45;6.50;;;16.70;49.00;;;;;;5053420;28;20040;-78
2021/03/10 11:02:20;;;;;;;7.93;6.07;;;16.60;48.90;;;;;;5052849;28;20494;-79
2021/03/10 11:04:46;;;;;;;8.52;6.50;;;16.70;49.00;;;;;;5053315;28;20021;-79
2021/03/10 11:07:11;;;;;;;9.02;6.38;;;16.70;49.00;;;;;;5053408;28;20029;-78
2021/03/10 11:09:39;;;;;;;11.23;7.10;;;16.60;49.00;;;;;;5052074;28;20055;-78
2021/03/10 11:12:08;;;;;;;9.35;6.68;;;16.60;49.10;;;;;;5052671;28;20087;-73
2021/03/10 11:14:35;;;;;;;9.88;7.45;;;16.70;49.00;;;;;;5052707;28;20025;-77
2021/03/10 11:17:01;;;;;;;9.35;7.65;;;16.70;49.00;;;;;;5053245;28;20044;-78
2021/03/10 11:19:27;;;;;;;10.95;7.97;;;16.80;48.90;;;;;;5052205;28;20033;-77
2021/03/10 11:21:52;;;;;;;15.13;8.80;;;16.80;48.90;;;;;;5052708;28;20044;-77
2021/03/10 11:24:18;;;;;;;13.80;9.02;;;16.90;48.80;;;;;;5052800;28;20070;-77
2021/03/10 11:26:44;;;;;;;14.75;8.77;;;17.10;48.80;;;;;;5052405;28;20039;-76
2021/03/10 11:29:10;;;;;;;12.65;8.30;;;17.20;48.80;;;;;;5052184;28;20021;-76
2021/03/10 11:31:36;;;;;;;16.48;8.00;;;17.40;49.10;;;;;;5033308;28;20733;-75
2021/03/10 11:34:02;;;;;;;16.90;7.05;;;17.60;49.30;;;;;;5051621;28;20508;-71
2021/03/10 11:36:27;;;;;;;13.00;7.18;;;17.70;50.10;;;;;;5051301;28;20056;-71
2021/03/10 11:38:53;;;;;;;14.48;7.00;;;17.80;49.90;;;;;;5050480;28;20487;-73
2021/03/10 11:41:19;;;;;;;10.43;7.38;;;17.80;50.40;;;;;;5051214;28;20488;-73
2021/03/10 11:43:44;;;;;;;10.00;7.00;;;17.90;51.00;;;;;;5051638;28;20059;-74
2021/03/10 11:46:10;;;;;;;18.80;8.00;;;18.00;51.30;;;;;;5051001;28;20020;-74
2021/03/10 11:48:35;;;;;;;15.65;7.47;;;18.20;51.30;;;;;;5049838;28;20831;-74
2021/03/10 11:51:01;;;;;;;18.40;7.05;;;18.40;51.10;;;;;;5052110;28;20566;-74
2021/03/10 11:53:27;;;;;;;17.17;8.30;;;18.70;50.70;;;;;;5050826;28;20499;-74
2021/03/10 11:55:52;;;;;;;13.10;7.57;;;19.00;50.90;;;;;;5050924;28;20024;-74
2021/03/10 11:58:19;;;;;;;13.30;7.00;;;19.20;50.60;;;;;;5049896;28;20032;-75
2021/03/10 12:00:45;;;;;;;11.38;6.43;;;19.30;50.30;;;;;;5048517;28;20083;-74
2021/03/10 12:03:10;;;;;;;13.13;6.50;;;19.50;50.40;;;;;;5050749;28;20104;-74
2021/03/10 12:05:36;;;;;;;11.55;6.53;;;19.70;50.20;;;;;;5031856;28;20108;-74
2021/03/10 12:08:02;;;;;;;12.57;6.38;;;19.80;49.70;;;;;;5050996;28;20404;-74
2021/03/10 12:10:28;;;;;;;9.45;6.32;;;19.80;49.40;;;;;;5050624;28;20528;-76
2021/03/10 12:12:53;;;;;;;13.52;6.93;;;19.80;49.50;;;;;;5050662;28;20104;-74
2021/03/10 12:15:19;;;;;;;11.18;6.28;;;19.70;49.40;;;;;;5050384;28;20107;-74
2021/03/10 12:17:46;;;;;;;9.20;6.25;;;19.80;49.40;;;;;;5050102;28;20112;-75
2021/03/10 12:20:12;;;;;;;9.60;6.78;;;19.80;49.10;;;;;;5049198;28;20024;-74
2021/03/10 12:22:38;;;;;;;15.27;8.70;;;19.90;48.30;;;;;;5048822;28;20041;-73
2021/03/10 12:25:05;;;;;;;10.65;7.60;;;19.80;48.70;;;;;;5032403;28;20075;-72
2021/03/10 12:27:31;;;;;;;14.75;8.23;;;19.60;49.60;;;;;;5045368;28;20025;-73
2021/03/10 12:29:58;;;;;;;12.25;8.52;;;19.40;50.10;;;;;;5047455;28;20032;-73
2021/03/10 12:32:25;;;;;;;14.10;9.23;;;19.10;50.60;;;;;;5050038;28;20032;-74
2021/03/10 12:34:52;;;;;;;12.45;8.40;;;19.00;50.80;;;;;;5050310;28;20488;-72
2021/03/10 12:37:18;;;;;;;13.27;9.05;;;18.90;50.80;;;;;;5049787;28;20408;-73
2021/03/10 12:39:43;;;;;;;13.30;8.13;;;18.90;50.90;;;;;;5050119;28;20017;-74
2021/03/10 12:42:10;;;;;;;13.60;9.70;;;18.80;51.00;;;;;;5049919;28;20056;-73
2021/03/10 12:44:39;;;;;;;12.75;9.90;;;18.70;51.20;;;;;;5049970;28;20021;-73
2021/03/10 12:47:05;;;;;;;13.98;9.52;;;18.70;51.40;;;;;;5051536;28;20057;-74
2021/03/10 12:49:31;;;;;;;14.90;9.73;;;18.60;51.20;;;;;;5033561;28;20508;-75
2021/03/10 12:51:57;;;;;;;13.43;9.15;;;18.60;51.10;;;;;;5050393;28;20029;-74